Time;durP1;ratioP1;P1;durP2;ratioP2;P2;SDS_P1;SDS_P2;PMS_P1;PMS_P2;Temp;Humidity;BMP_temperature;BMP_pressure;BME280_temperature;BME280_humidity;BME280_pressure;Samples;Min_cycle;Max_cycle;Signal;HPM_P1;HPM_P2
2024/01/16 00:02:53;;;;;;;9.07;4.97;;;;;-0.10;95268.00;;;;8271669;28;20258;-71
2024/01/16 00:06:57;;;;;;;6.30;4.30;;;;;-0.10;95270.00;;;;8271421;28;20229;-70
2024/01/16 00:11:02;;;;;;;9.67;5.03;;;;;-0.20;95272.00;;;;8272149;28;20641;-71
2024/01/16 00:15:07;;;;;;;6.07;4.40;;;;;-0.10;95256.00;;;;8271382;28;20203;-71
2024/01/16 00:19:13;;;;;;;10.63;3.93;;;;;-0.20;95261.00;;;;8271806;28;20655;-72
2024/01/16 00:23:18;;;;;;;8.10;4.37;;;;;-0.30;95274.00;;;;8271673;28;20190;-72
2024/01/16 00:27:21;;;;;;;5.90;4.17;;;;;-0.20;95284.00;;;;8271428;28;20222;-72
2024/01/16 00:31:24;;;;;;;13.30;4.47;;;;;-0.20;95284.00;;;;8271379;28;20202;-72
2024/01/16 00:35:27;;;;;;;4.23;3.40;;;;;-0.20;95280.00;;;;8270898;28;20597;-70
2024/01/16 00:39:32;;;;;;;8.60;3.80;;;;;-0.20;95309.00;;;;8270818;28;20206;-72
2024/01/16 00:43:36;;;;;;;5.40;3.73;;;;;-0.10;95306.00;;;;8271039;28;20266;-72
2024/01/16 00:47:39;;;;;;;8.87;4.87;;;;;-0.10;95317.00;;;;8270675;28;20312;-73
2024/01/16 00:51:42;;;;;;;8.23;3.93;;;;;-0.10;95314.00;;;;8270574;28;20204;-73
2024/01/16 00:55:47;;;;;;;6.70;4.77;;;;;-0.10;95319.00;;;;8269948;28;20191;-73
2024/01/16 00:59:50;;;;;;;10.33;5.27;;;;;-0.10;95330.00;;;;8270449;28;20198;-72
2024/01/16 01:03:53;;;;;;;10.43;4.67;;;;;-0.10;95337.00;;;;8270085;28;20223;-68
2024/01/16 01:07:56;;;;;;;8.03;5.33;;;;;0.00;95336.00;;;;8269515;28;20222;-72
2024/01/16 01:12:01;;;;;;;10.20;4.53;;;;;-0.10;95346.00;;;;8270326;28;20206;-72
2024/01/16 01:16:06;;;;;;;9.33;4.60;;;;;-0.10;95349.00;;;;8269717;28;20623;-71
2024/01/16 01:20:12;;;;;;;9.87;5.10;;;;;-0.10;95366.00;;;;8269528;28;20231;-72
2024/01/16 01:24:15;;;;;;;5.60;4.10;;;;;-0.10;95360.00;;;;8269296;28;20195;-72
2024/01/16 01:28:19;;;;;;;6.83;3.67;;;;;0.00;95368.00;;;;8269274;28;20246;-72
2024/01/16 01:32:23;;;;;;;7.03;4.47;;;;;-0.10;95385.00;;;;8269646;28;20228;-72
2024/01/16 01:36:26;;;;;;;12.57;4.60;;;;;-0.10;95380.00;;;;8269360;28;20220;-72
2024/01/16 01:40:29;;;;;;;3.47;3.17;;;;;-0.10;95395.00;;;;8269336;28;20288;-72
2024/01/16 01:44:33;;;;;;;9.27;4.77;;;;;-0.10;95398.00;;;;8269287;28;20203;-71
2024/01/16 01:48:38;;;;;;;9.17;4.57;;;;;-0.10;95399.00;;;;8269204;28;20223;-72
2024/01/16 01:52:42;;;;;;;10.20;4.97;;;;;-0.10;95403.00;;;;8268984;28;20234;-72
2024/01/16 01:56:47;;;;;;;9.80;4.37;;;;;-0.20;95398.00;;;;8267064;28;20230;-72
2024/01/16 02:00:52;;;;;;;8.80;5.03;;;;;-0.20;95412.00;;;;8267646;28;20202;-71
2024/01/16 02:04:55;;;;;;;9.23;4.67;;;;;-0.20;95421.00;;;;8268628;28;20247;-72
2024/01/16 02:08:58;;;;;;;7.57;4.67;;;;;-0.20;95421.00;;;;8268109;28;20224;-71
2024/01/16 02:13:02;;;;;;;7.60;4.80;;;;;-0.20;95419.00;;;;8266923;28;20306;-70
2024/01/16 02:17:07;;;;;;;8.87;3.97;;;;;-0.20;95420.00;;;;8267416;28;20203;-71
2024/01/16 02:21:10;;;;;;;11.63;5.03;;;;;-0.20;95403.00;;;;8267592;28;20198;-71
2024/01/16 02:25:14;;;;;;;10.57;4.63;;;;;-0.20;95422.00;;;;8267271;28;20235;-71
2024/01/16 02:29:18;;;;;;;9.07;4.80;;;;;-0.20;95421.00;;;;8267526;28;20219;-72
2024/01/16 02:33:21;;;;;;;8.67;5.27;;;;;-0.20;95408.00;;;;8267020;28;20203;-71
2024/01/16 02:37:24;;;;;;;9.67;4.70;;;;;-0.20;95407.00;;;;8267413;28;20626;-71
2024/01/16 02:41:29;;;;;;;9.47;5.27;;;;;-0.20;95407.00;;;;8266841;28;20227;-71
2024/01/16 02:45:32;;;;;;;13.13;4.90;;;;;-0.20;95399.00;;;;8266797;28;20242;-71
2024/01/16 02:49:36;;;;;;;6.63;4.73;;;;;-0.30;95408.00;;;;8267858;28;20339;-71
2024/01/16 02:53:40;;;;;;;11.73;5.40;;;;;-0.30;95407.00;;;;8267117;28;20230;-71
2024/01/16 02:57:44;;;;;;;8.90;3.93;;;;;-0.30;95402.00;;;;8266900;28;20199;-70
2024/01/16 03:01:48;;;;;;;6.77;4.73;;;;;-0.30;95416.00;;;;8296703;22;20359;-66
2024/01/16 03:05:51;;;;;;;8.73;4.93;;;;;-0.30;95436.00;;;;8283377;28;20201;-69
2024/01/16 03:09:54;;;;;;;10.57;4.30;;;;;-0.30;95435.00;;;;8282675;28;20221;-68
2024/01/16 03:13:59;;;;;;;9.80;4.70;;;;;-0.30;95435.00;;;;8283555;28;20210;-67
2024/01/16 03:18:02;;;;;;;9.07;5.03;;;;;-0.30;95432.00;;;;8283443;28;20210;-68
2024/01/16 03:22:05;;;;;;;8.17;3.97;;;;;-0.30;95442.00;;;;8286181;28;20214;-68
2024/01/16 03:26:13;;;;;;;9.63;5.17;;;;;-0.30;95444.00;;;;8284119;28;20230;-68
2024/01/16 03:30:18;;;;;;;6.93;4.13;;;;;-0.30;95454.00;;;;8294666;28;20799;-67
2024/01/16 03:34:21;;;;;;;9.03;5.17;;;;;-0.30;95465.00;;;;8296262;28;20216;-69
2024/01/16 03:38:25;;;;;;;9.13;4.97;;;;;-0.30;95480.00;;;;8296064;28;20296;-68
2024/01/16 03:42:28;;;;;;;11.60;4.80;;;;;-0.30;95477.00;;;;8294128;28;20222;-69
2024/01/16 03:46:32;;;;;;;9.33;5.23;;;;;-0.20;95488.00;;;;8295281;28;20216;-67
2024/01/16 03:50:36;;;;;;;10.90;5.00;;;;;-0.20;95495.00;;;;8296273;28;21107;-68
2024/01/16 03:54:39;;;;;;;9.47;4.90;;;;;-0.20;95493.00;;;;8294299;28;21238;-68
2024/01/16 03:58:42;;;;;;;9.10;4.33;;;;;-0.30;95487.00;;;;8297965;28;20212;-67
2024/01/16 04:02:47;;;;;;;10.13;4.70;;;;;-0.20;95501.00;;;;8298360;28;20226;-68
2024/01/16 04:06:50;;;;;;;8.83;5.00;;;;;-0.20;95504.00;;;;8298912;28;20278;-68
2024/01/16 04:10:53;;;;;;;8.30;4.77;;;;;-0.20;95499.00;;;;8298949;28;20205;-69
2024/01/16 04:14:56;;;;;;;13.30;5.23;;;;;-0.20;95497.00;;;;8307560;28;20226;-68
2024/01/16 04:19:00;;;;;;;12.00;4.87;;;;;-0.20;95504.00;;;;8303761;28;20219;-67
2024/01/16 04:23:04;;;;;;;8.70;4.77;;;;;-0.30;95497.00;;;;8305267;28;20220;-69
2024/01/16 04:27:07;;;;;;;10.47;4.73;;;;;-0.30;95498.00;;;;8306386;28;20205;-68
2024/01/16 04:31:11;;;;;;;9.53;5.00;;;;;-0.30;95497.00;;;;8304723;28;21530;-68
2024/01/16 04:35:16;;;;;;;8.37;4.50;;;;;-0.30;95503.00;;;;8301303;28;20205;-68
2024/01/16 04:39:22;;;;;;;9.77;4.90;;;;;-0.40;95490.00;;;;8298539;28;20257;-67
2024/01/16 04:43:26;;;;;;;13.07;5.17;;;;;-0.30;95489.00;;;;8290295;28;20208;-68
2024/01/16 04:47:31;;;;;;;8.40;4.83;;;;;-0.40;95484.00;;;;8297966;28;20224;-66
2024/01/16 04:51:36;;;;;;;12.47;4.80;;;;;-0.40;95487.00;;;;8299492;28;20213;-66
2024/01/16 04:55:39;;;;;;;10.83;5.23;;;;;-0.40;95494.00;;;;8302018;28;20225;-68
2024/01/16 04:59:42;;;;;;;12.40;5.07;;;;;-0.40;95489.00;;;;8301221;28;24470;-66
2024/01/16 05:03:46;;;;;;;6.13;3.80;;;;;-0.50;95498.00;;;;8300578;28;20229;-67
2024/01/16 05:07:51;;;;;;;8.90;5.47;;;;;-0.50;95502.00;;;;8301302;28;20225;-67
2024/01/16 05:11:54;;;;;;;10.57;5.10;;;;;-0.60;95508.00;;;;8302484;28;20762;-68
2024/01/16 05:15:57;;;;;;;7.43;4.67;;;;;-0.60;95503.00;;;;8301256;28;20776;-69
2024/01/16 05:20:01;;;;;;;9.70;4.90;;;;;-0.60;95508.00;;;;8298428;28;20202;-67
2024/01/16 05:24:06;;;;;;;9.53;5.23;;;;;-0.60;95518.00;;;;8299321;28;20217;-67
2024/01/16 05:28:09;;;;;;;10.80;5.47;;;;;-0.60;95524.00;;;;8301474;28;20240;-67
2024/01/16 05:32:14;;;;;;;7.73;5.00;;;;;-0.60;95527.00;;;;8300478;28;20724;-68
2024/01/16 05:36:17;;;;;;;11.93;5.43;;;;;-0.60;95527.00;;;;8299693;28;20213;-67
2024/01/16 05:40:22;;;;;;;8.77;4.77;;;;;-0.60;95528.00;;;;8296927;28;20228;-65
2024/01/16 05:44:25;;;;;;;6.03;4.50;;;;;-0.60;95533.00;;;;8300289;28;22544;-67
2024/01/16 05:48:28;;;;;;;10.90;5.47;;;;;-0.60;95534.00;;;;8301141;28;20229;-67
2024/01/16 05:52:31;;;;;;;9.53;5.10;;;;;-0.70;95533.00;;;;8302155;28;20203;-67
2024/01/16 05:56:36;;;;;;;15.20;5.60;;;;;-0.70;95541.00;;;;8299546;28;20202;-67
2024/01/16 06:00:39;;;;;;;9.00;5.20;;;;;-0.80;95541.00;;;;8300766;28;20208;-66
2024/01/16 06:04:42;;;;;;;10.33;5.20;;;;;-0.80;95559.00;;;;8300898;28;20237;-67
2024/01/16 06:08:46;;;;;;;12.30;5.00;;;;;-0.80;95560.00;;;;8298867;28;20279;-67
2024/01/16 06:12:50;;;;;;;9.17;4.70;;;;;-0.90;95562.00;;;;8298973;28;20209;-67
2024/01/16 06:16:53;;;;;;;7.23;4.43;;;;;-0.90;95568.00;;;;8301288;28;20329;-68
2024/01/16 06:20:57;;;;;;;10.47;5.10;;;;;-1.10;95568.00;;;;8301193;28;20288;-68
2024/01/16 06:25:01;;;;;;;9.73;4.83;;;;;-1.10;95572.00;;;;8298169;28;20206;-69
2024/01/16 06:29:06;;;;;;;10.97;4.53;;;;;-1.10;95566.00;;;;8298746;28;20885;-69
2024/01/16 06:33:19;;;;;;;9.33;5.37;;;;;-1.20;95567.00;;;;8298072;28;20647;-67
2024/01/16 06:37:22;;;;;;;11.47;5.37;;;;;-1.20;95561.00;;;;8301211;28;20212;-68
2024/01/16 06:41:25;;;;;;;10.87;5.40;;;;;-1.20;95558.00;;;;8299282;28;20316;-68
2024/01/16 06:45:30;;;;;;;7.27;4.90;;;;;-1.20;95561.00;;;;8300890;28;21353;-68
2024/01/16 06:49:33;;;;;;;8.23;4.17;;;;;-1.20;95560.00;;;;8299077;28;21049;-70
2024/01/16 06:53:36;;;;;;;10.40;5.13;;;;;-1.20;95567.00;;;;8299882;28;20206;-66
2024/01/16 06:57:40;;;;;;;9.30;5.17;;;;;-1.20;95571.00;;;;8298933;28;20686;-67
2024/01/16 07:01:44;;;;;;;8.77;4.97;;;;;-1.20;95573.00;;;;8299381;28;20962;-66
2024/01/16 07:05:47;;;;;;;9.73;4.67;;;;;-1.20;95572.00;;;;8298845;28;20212;-67
2024/01/16 07:09:51;;;;;;;5.10;3.53;;;;;-1.20;95569.00;;;;8298943;28;20749;-67
2024/01/16 07:13:54;;;;;;;6.57;3.83;;;;;-1.30;95574.00;;;;8297700;28;20193;-67
2024/01/16 07:17:58;;;;;;;8.03;4.20;;;;;-1.30;95566.00;;;;8296517;28;20228;-68
2024/01/16 07:22:02;;;;;;;10.53;5.10;;;;;-1.30;95558.00;;;;8298140;28;20938;-66
2024/01/16 07:26:06;;;;;;;11.73;5.33;;;;;-1.40;95546.00;;;;8298600;28;20256;-68
2024/01/16 07:30:10;;;;;;;9.83;5.07;;;;;-1.40;95548.00;;;;8299766;28;20651;-67
2024/01/16 07:34:19;;;;;;;9.10;4.93;;;;;-1.40;95548.00;;;;8298023;28;20212;-67
2024/01/16 07:38:23;;;;;;;13.23;5.87;;;;;-1.40;95550.00;;;;8296810;28;20249;-67
2024/01/16 07:42:26;;;;;;;9.23;5.53;;;;;-1.50;95550.00;;;;8299515;28;20613;-67
2024/01/16 07:46:29;;;;;;;13.70;5.47;;;;;-1.50;95554.00;;;;8298317;28;20659;-68
2024/01/16 07:50:33;;;;;;;14.27;5.40;;;;;-1.40;95568.00;;;;8298326;28;20231;-68
2024/01/16 07:54:37;;;;;;;10.40;5.47;;;;;-1.40;95565.00;;;;8297588;28;20236;-67
2024/01/16 07:58:40;;;;;;;10.90;5.00;;;;;-1.30;95563.00;;;;8296695;28;20329;-67
2024/01/16 08:02:43;;;;;;;13.00;5.97;;;;;-1.30;95564.00;;;;8292673;28;20307;-66
2024/01/16 08:06:48;;;;;;;12.57;5.90;;;;;-1.20;95567.00;;;;8295309;28;20217;-67
2024/01/16 08:10:51;;;;;;;13.83;5.43;;;;;-1.10;95569.00;;;;8294289;28;20678;-68
2024/01/16 08:14:54;;;;;;;9.90;5.20;;;;;-1.10;95576.00;;;;8300153;28;20736;-67
2024/01/16 08:18:58;;;;;;;9.23;5.10;;;;;-1.00;95579.00;;;;8302755;28;20206;-67
2024/01/16 08:23:02;;;;;;;9.43;4.67;;;;;-0.90;95583.00;;;;8301827;28;20767;-67
2024/01/16 08:27:06;;;;;;;19.00;5.77;;;;;-0.90;95576.00;;;;8301370;28;20222;-67
2024/01/16 08:31:09;;;;;;;10.00;4.83;;;;;-0.90;95579.00;;;;8302038;28;20241;-67
2024/01/16 08:35:12;;;;;;;10.40;4.83;;;;;-0.80;95581.00;;;;8300355;28;20209;-68
2024/01/16 08:39:17;;;;;;;11.73;5.37;;;;;-0.60;95577.00;;;;8302092;28;20237;-67
2024/01/16 08:43:20;;;;;;;12.90;6.77;;;;;-0.50;95585.00;;;;8300517;28;20321;-66
2024/01/16 08:47:23;;;;;;;10.20;5.67;;;;;-0.50;95591.00;;;;8304642;28;20206;-67
2024/01/16 08:51:27;;;;;;;8.67;4.77;;;;;-0.40;95591.00;;;;8301073;28;20229;-68
2024/01/16 08:55:31;;;;;;;9.30;5.17;;;;;-0.50;95593.00;;;;8301802;28;20208;-66
2024/01/16 08:59:34;;;;;;;8.37;5.00;;;;;-0.40;95591.00;;;;8300730;28;20208;-66
2024/01/16 09:03:37;;;;;;;12.30;5.37;;;;;-0.40;95591.00;;;;8300674;28;22109;-66
2024/01/16 09:07:41;;;;;;;10.57;6.70;;;;;-0.40;95585.00;;;;8298116;28;20216;-67
2024/01/16 09:11:45;;;;;;;9.63;4.70;;;;;-0.30;95583.00;;;;8299428;28;20229;-66
2024/01/16 09:15:49;;;;;;;17.67;6.60;;;;;-0.10;95583.00;;;;8300582;28;21958;-66
2024/01/16 09:19:52;;;;;;;50.17;16.10;;;;;0.10;95582.00;;;;8298716;28;20206;-67
2024/01/16 09:23:55;;;;;;;9.63;4.90;;;;;0.20;95585.00;;;;8298603;28;20652;-66
2024/01/16 09:28:00;;;;;;;8.57;5.30;;;;;0.30;95582.00;;;;8300377;28;20212;-66
2024/01/16 09:32:03;;;;;;;11.10;4.60;;;;;0.40;95578.00;;;;8301545;28;20776;-66
2024/01/16 09:36:06;;;;;;;6.80;4.47;;;;;0.40;95564.00;;;;8299486;28;20209;-66
2024/01/16 09:40:11;;;;;;;7.87;4.67;;;;;0.50;95573.00;;;;8300908;28;20238;-66
2024/01/16 09:44:15;;;;;;;14.13;6.00;;;;;0.50;95570.00;;;;8299315;28;20202;-67
2024/01/16 09:48:18;;;;;;;4.87;3.80;;;;;0.50;95574.00;;;;8298591;28;20209;-65
2024/01/16 09:52:22;;;;;;;10.50;5.40;;;;;0.50;95569.00;;;;8297528;28;20229;-66
2024/01/16 09:56:25;;;;;;;14.03;5.67;;;;;0.70;95577.00;;;;8299889;28;20201;-65
2024/01/16 10:00:31;;;;;;;12.00;5.80;;;;;0.80;95579.00;;;;8299362;28;20252;-66
2024/01/16 10:04:35;;;;;;;8.80;5.40;;;;;1.00;95560.00;;;;8300496;28;20669;-65
2024/01/16 10:08:38;;;;;;;8.67;5.10;;;;;0.90;95558.00;;;;8298509;28;20209;-67
2024/01/16 10:12:42;;;;;;;9.70;4.73;;;;;1.00;95555.00;;;;8299854;28;20237;-67
2024/01/16 10:17:14;;;;;;;9.53;5.03;;;;;1.10;95557.00;;;;8299747;28;20573;-66
2024/01/16 10:21:22;;;;;;;9.23;5.00;;;;;1.20;95567.00;;;;8298537;28;20848;-66
2024/01/16 10:25:25;;;;;;;10.80;4.67;;;;;1.20;95563.00;;;;8298666;28;20292;-67
2024/01/16 10:29:29;;;;;;;8.17;4.23;;;;;1.30;95562.00;;;;8296589;28;20310;-68
2024/01/16 10:33:50;;;;;;;14.20;4.60;;;;;1.20;95565.00;;;;8297270;28;20265;-66
2024/01/16 10:37:54;;;;;;;11.77;4.83;;;;;1.10;95575.00;;;;8297173;28;20216;-67
2024/01/16 10:41:58;;;;;;;11.53;4.83;;;;;1.00;95570.00;;;;8295801;28;20195;-67
2024/01/16 10:46:09;;;;;;;10.40;4.53;;;;;0.90;95575.00;;;;8298740;28;20774;-68
2024/01/16 10:50:13;;;;;;;8.60;4.10;;;;;0.90;95580.00;;;;8298365;28;21994;-66
2024/01/16 10:54:17;;;;;;;11.20;4.30;;;;;0.90;95582.00;;;;8299364;28;20548;-67
2024/01/16 10:58:22;;;;;;;8.50;4.53;;;;;1.00;95573.00;;;;8297860;28;20211;-67
2024/01/16 11:02:35;;;;;;;9.67;4.60;;;;;1.10;95574.00;;;;8297105;28;21986;-66
2024/01/16 11:06:42;;;;;;;7.90;4.50;;;;;1.30;95587.00;;;;8295400;28;20224;-65
2024/01/16 11:10:46;;;;;;;9.50;4.60;;;;;1.40;95583.00;;;;8295425;28;20276;-65
2024/01/16 11:14:52;;;;;;;8.67;4.07;;;;;1.60;95580.00;;;;8294947;28;20206;-64
2024/01/16 11:18:56;;;;;;;6.13;3.53;;;;;1.70;95580.00;;;;8296703;28;20206;-65
2024/01/16 11:23:20;;;;;;;11.80;4.23;;;;;1.50;95571.00;;;;8295534;28;20210;-65
2024/01/16 11:27:24;;;;;;;8.77;4.23;;;;;1.50;95581.00;;;;8296202;28;20208;-66
2024/01/16 11:31:34;;;;;;;9.83;4.00;;;;;1.50;95577.00;;;;8294735;28;22161;-66
2024/01/16 11:35:39;;;;;;;5.47;3.90;;;;;1.50;95564.00;;;;8296450;28;20208;-66
2024/01/16 11:39:44;;;;;;;9.10;3.93;;;;;1.50;95560.00;;;;8295049;28;24719;-67
2024/01/16 11:43:47;;;;;;;8.43;4.43;;;;;1.60;95563.00;;;;8286225;28;20619;-67
2024/01/16 11:48:09;;;;;;;8.50;4.27;;;;;1.80;95558.00;;;;8292428;28;20202;-67
2024/01/16 11:52:13;;;;;;;10.00;4.73;;;;;2.00;95550.00;;;;8299947;28;20227;-66
2024/01/16 11:56:56;;;;;;;7.83;4.47;;;;;2.10;95542.00;;;;8299907;28;20260;-67
2024/01/16 12:00:59;;;;;;;9.13;4.00;;;;;2.30;95531.00;;;;8300897;28;20210;-65
2024/01/16 12:05:06;;;;;;;8.90;4.00;;;;;2.40;95522.00;;;;8299628;28;20636;-66
2024/01/16 12:09:13;;;;;;;6.87;4.30;;;;;2.50;95522.00;;;;8299978;28;20207;-66
2024/01/16 12:13:18;;;;;;;5.70;3.43;;;;;2.70;95519.00;;;;8299761;28;20795;-67
2024/01/16 12:17:21;;;;;;;7.70;3.80;;;;;2.80;95517.00;;;;8300227;28;20234;-66
2024/01/16 12:21:24;;;;;;;7.87;4.27;;;;;2.90;95524.00;;;;8299574;28;20209;-66
2024/01/16 12:25:30;;;;;;;10.50;4.33;;;;;2.90;95518.00;;;;8298555;28;20209;-67
2024/01/16 12:30:11;;;;;;;8.60;4.43;;;;;2.90;95522.00;;;;8298884;28;20228;-68
2024/01/16 12:34:14;;;;;;;11.97;4.03;;;;;2.90;95517.00;;;;8299185;28;20199;-67
2024/01/16 12:38:19;;;;;;;6.43;4.30;;;;;2.90;95509.00;;;;8298743;28;20218;-65
2024/01/16 12:42:22;;;;;;;6.67;4.10;;;;;3.00;95486.00;;;;8298303;28;20204;-67
2024/01/16 12:46:29;;;;;;;11.90;5.50;;;;;3.00;95492.00;;;;8299634;28;20208;-67
2024/01/16 12:50:33;;;;;;;19.80;9.10;;;;;3.00;95479.00;;;;8299197;28;20235;-66
2024/01/16 12:54:36;;;;;;;41.23;16.43;;;;;3.10;95470.00;;;;8299990;28;20653;-67
2024/01/16 12:58:41;;;;;;;30.13;10.77;;;;;3.10;95467.00;;;;8298633;28;20642;-66
2024/01/16 13:02:50;;;;;;;25.30;10.07;;;;;3.10;95460.00;;;;8299885;28;20308;-67
2024/01/16 13:07:03;;;;;;;17.17;8.00;;;;;3.10;95460.00;;;;8297304;28;20213;-66
2024/01/16 13:11:08;;;;;;;7.40;4.50;;;;;3.10;95451.00;;;;8294614;28;20262;-66
2024/01/16 13:15:16;;;;;;;11.33;5.63;;;;;3.10;95445.00;;;;8296187;28;21250;-67
2024/01/16 13:19:21;;;;;;;8.33;5.87;;;;;3.10;95451.00;;;;8299642;28;20224;-67
2024/01/16 13:23:26;;;;;;;11.60;5.47;;;;;3.00;95444.00;;;;8296593;28;20217;-67
2024/01/16 13:27:29;;;;;;;24.80;9.57;;;;;3.00;95437.00;;;;8296945;28;20210;-66
2024/01/16 13:31:32;;;;;;;19.03;8.13;;;;;3.10;95440.00;;;;8296790;28;20319;-66
2024/01/16 13:35:40;;;;;;;9.80;5.73;;;;;3.10;95434.00;;;;8294513;28;20254;-66
2024/01/16 13:39:43;;;;;;;14.90;6.17;;;;;3.20;95441.00;;;;8298886;28;20306;-66
2024/01/16 13:43:49;;;;;;;12.17;6.80;;;;;3.10;95441.00;;;;8299224;28;20215;-66
2024/01/16 13:47:52;;;;;;;17.27;6.83;;;;;3.00;95435.00;;;;8298837;28;20353;-67
2024/01/16 13:51:57;;;;;;;11.53;5.50;;;;;3.00;95431.00;;;;8297231;28;20233;-66
2024/01/16 13:56:00;;;;;;;39.50;11.20;;;;;2.90;95444.00;;;;8298015;28;20768;-66
2024/01/16 14:00:04;;;;;;;100.53;21.03;;;;;2.80;95442.00;;;;8296612;28;20551;-66
2024/01/16 14:04:08;;;;;;;16.10;7.90;;;;;2.70;95443.00;;;;8299045;28;21088;-66
2024/01/16 14:08:12;;;;;;;16.97;6.43;;;;;2.60;95427.00;;;;8296328;28;20270;-66
2024/01/16 14:12:16;;;;;;;10.20;5.60;;;;;2.60;95432.00;;;;8295829;28;20249;-66
2024/01/16 14:16:19;;;;;;;13.73;5.47;;;;;2.60;95432.00;;;;8296302;28;21290;-66
2024/01/16 14:20:39;;;;;;;10.23;6.43;;;;;2.50;95427.00;;;;8293063;28;20200;-66
2024/01/16 14:24:46;;;;;;;11.33;6.33;;;;;2.50;95426.00;;;;8296390;28;20199;-67
2024/01/16 14:28:50;;;;;;;11.50;6.43;;;;;2.30;95409.00;;;;8297386;28;20332;-67
2024/01/16 14:32:55;;;;;;;11.57;5.27;;;;;2.20;95404.00;;;;8295664;28;20254;-67
2024/01/16 14:36:58;;;;;;;12.60;4.70;;;;;2.10;95427.00;;;;8297074;28;20205;-67
2024/01/16 14:41:03;;;;;;;12.33;5.20;;;;;1.80;95423.00;;;;8294482;28;20217;-67
2024/01/16 14:45:07;;;;;;;9.10;4.50;;;;;1.50;95421.00;;;;8296729;28;20667;-67
2024/01/16 14:49:10;;;;;;;13.50;5.50;;;;;1.40;95418.00;;;;8297426;28;22036;-67
2024/01/16 14:53:14;;;;;;;7.83;4.47;;;;;1.20;95416.00;;;;8295939;28;20314;-67
2024/01/16 14:57:19;;;;;;;11.07;4.60;;;;;0.90;95417.00;;;;8296154;28;20197;-67
2024/01/16 15:01:22;;;;;;;11.53;4.87;;;;;0.60;95414.00;;;;8293996;28;20215;-67
2024/01/16 15:05:26;;;;;;;12.77;5.03;;;;;0.30;95420.00;;;;8294361;28;20204;-67
2024/01/16 15:09:29;;;;;;;14.37;5.53;;;;;0.20;95416.00;;;;8295692;28;20248;-67
2024/01/16 15:13:34;;;;;;;14.17;5.43;;;;;-0.10;95423.00;;;;8294517;28;20230;-67
2024/01/16 15:17:37;;;;;;;16.10;5.40;;;;;-0.30;95406.00;;;;8293421;28;20263;-68
2024/01/16 15:21:41;;;;;;;14.73;6.07;;;;;-0.40;95398.00;;;;8286366;28;21034;-67
2024/01/16 15:25:44;;;;;;;15.07;5.80;;;;;-0.60;95402.00;;;;8292365;28;20293;-67
2024/01/16 15:29:50;;;;;;;20.43;7.50;;;;;-0.70;95391.00;;;;8295091;28;20205;-67
2024/01/16 15:33:53;;;;;;;13.10;6.47;;;;;-0.70;95392.00;;;;8295412;28;20226;-67
2024/01/16 15:37:56;;;;;;;15.17;6.60;;;;;-0.80;95385.00;;;;8293869;28;20201;-67
2024/01/16 15:41:59;;;;;;;13.23;5.93;;;;;-0.80;95392.00;;;;8293419;28;20296;-67
2024/01/16 15:46:04;;;;;;;12.00;6.37;;;;;-0.90;95385.00;;;;8314580;28;20205;-69
2024/01/16 15:50:10;;;;;;;16.00;6.63;;;;;-1.00;95380.00;;;;8330546;28;20277;-70
2024/01/16 15:54:13;;;;;;;15.93;7.17;;;;;-1.10;95389.00;;;;8330765;28;20221;-69
2024/01/16 15:58:17;;;;;;;15.30;9.47;;;;;-1.00;95401.00;;;;8329841;28;20197;-69
2024/01/16 16:02:22;;;;;;;12.50;6.77;;;;;-1.00;95417.00;;;;8330914;28;20256;-69
2024/01/16 16:06:25;;;;;;;14.40;6.80;;;;;-1.00;95414.00;;;;8330097;28;20189;-68
2024/01/16 16:10:29;;;;;;;16.30;7.17;;;;;-1.10;95413.00;;;;8329758;28;20239;-69
2024/01/16 16:14:32;;;;;;;14.87;7.00;;;;;-1.10;95416.00;;;;8330073;28;20746;-69
2024/01/16 16:18:37;;;;;;;18.97;7.40;;;;;-1.10;95401.00;;;;8329724;28;20191;-69
2024/01/16 16:22:40;;;;;;;20.20;6.27;;;;;-1.10;95398.00;;;;8330213;28;20205;-68
2024/01/16 16:26:44;;;;;;;11.23;6.13;;;;;-1.10;95412.00;;;;8330068;28;20209;-68
2024/01/16 16:30:47;;;;;;;17.27;7.17;;;;;-1.20;95409.00;;;;8330908;28;20654;-68
2024/01/16 16:34:53;;;;;;;21.63;8.37;;;;;-1.20;95408.00;;;;8333652;28;20586;-68
2024/01/16 16:38:59;;;;;;;15.00;6.67;;;;;-1.20;95412.00;;;;8336182;28;20186;-68
2024/01/16 16:43:04;;;;;;;13.43;6.40;;;;;-1.20;95414.00;;;;8336151;28;20186;-68
2024/01/16 16:47:08;;;;;;;24.20;8.53;;;;;-1.20;95408.00;;;;8335803;28;20197;-67
2024/01/16 16:51:14;;;;;;;21.20;7.60;;;;;-1.30;95405.00;;;;8335889;28;20197;-68
2024/01/16 16:55:17;;;;;;;19.47;7.60;;;;;-1.30;95400.00;;;;8336030;28;20252;-68
2024/01/16 16:59:21;;;;;;;20.97;7.30;;;;;-1.40;95407.00;;;;8336214;28;20202;-67
2024/01/16 17:03:24;;;;;;;18.03;7.60;;;;;-1.50;95411.00;;;;8334782;28;20229;-68
2024/01/16 17:07:28;;;;;;;18.43;7.77;;;;;-1.50;95416.00;;;;8335540;28;20603;-69
2024/01/16 17:11:34;;;;;;;24.57;8.60;;;;;-1.50;95425.00;;;;8334688;28;20198;-69
2024/01/16 17:15:38;;;;;;;17.27;8.00;;;;;-1.50;95426.00;;;;8335993;28;20268;-70
2024/01/16 17:19:41;;;;;;;16.63;7.87;;;;;-1.50;95430.00;;;;8335066;28;20686;-70
2024/01/16 17:23:46;;;;;;;17.87;7.17;;;;;-1.40;95434.00;;;;8335170;28;20569;-70
2024/01/16 17:27:49;;;;;;;12.70;6.70;;;;;-1.50;95425.00;;;;8334846;28;20688;-70
2024/01/16 17:31:54;;;;;;;16.63;7.07;;;;;-1.50;95418.00;;;;8335137;28;20646;-69
2024/01/16 17:35:59;;;;;;;16.60;7.10;;;;;-1.60;95425.00;;;;8334043;28;20231;-69
2024/01/16 17:40:12;;;;;;;16.13;6.67;;;;;-1.70;95431.00;;;;8333987;28;20193;-68
2024/01/16 17:44:15;;;;;;;17.47;6.77;;;;;-1.80;95429.00;;;;8337577;28;20186;-69
2024/01/16 17:48:18;;;;;;;22.00;8.53;;;;;-1.80;95434.00;;;;8333197;28;20193;-69
2024/01/16 17:52:21;;;;;;;13.47;7.37;;;;;-1.80;95427.00;;;;8334265;28;20655;-69
2024/01/16 17:56:26;;;;;;;14.10;7.27;;;;;-1.80;95422.00;;;;8334106;28;20196;-68
2024/01/16 18:00:31;;;;;;;11.97;6.67;;;;;-1.80;95434.00;;;;8334289;28;20220;-68
2024/01/16 18:04:34;;;;;;;14.20;6.43;;;;;-1.90;95419.00;;;;8334908;28;20218;-70
2024/01/16 18:08:38;;;;;;;14.67;6.10;;;;;-1.90;95416.00;;;;8333819;28;20225;-67
2024/01/16 18:12:43;;;;;;;13.20;6.30;;;;;-2.00;95408.00;;;;8333301;28;20224;-69
2024/01/16 18:16:48;;;;;;;16.40;7.13;;;;;-2.10;95407.00;;;;8333167;28;20197;-68
2024/01/16 18:20:53;;;;;;;18.87;7.70;;;;;-2.10;95404.00;;;;8332561;28;20182;-69
2024/01/16 18:24:57;;;;;;;18.50;7.63;;;;;-2.10;95405.00;;;;8333245;28;20787;-68
2024/01/16 18:29:02;;;;;;;13.90;7.53;;;;;-2.10;95404.00;;;;8332408;28;20255;-68
2024/01/16 18:33:05;;;;;;;18.77;6.87;;;;;-2.10;95395.00;;;;8332701;28;20607;-68
2024/01/16 18:37:09;;;;;;;12.73;7.33;;;;;-2.10;95395.00;;;;8332264;28;20236;-69
2024/01/16 18:41:13;;;;;;;12.80;6.67;;;;;-2.20;95395.00;;;;8332106;28;20235;-69
2024/01/16 18:45:18;;;;;;;18.53;7.83;;;;;-2.20;95398.00;;;;8333217;28;20208;-69
2024/01/16 18:49:21;;;;;;;17.63;8.17;;;;;-2.30;95394.00;;;;8329836;28;20201;-69
2024/01/16 18:53:25;;;;;;;15.77;7.37;;;;;-2.50;95392.00;;;;8332080;28;20275;-69
2024/01/16 18:57:28;;;;;;;17.60;7.87;;;;;-2.70;95408.00;;;;8331268;28;20224;-69
2024/01/16 19:01:34;;;;;;;16.33;7.90;;;;;-2.90;95389.00;;;;8330866;28;20204;-69
2024/01/16 19:05:38;;;;;;;17.23;8.60;;;;;-3.10;95384.00;;;;8332674;28;20264;-69
2024/01/16 19:09:43;;;;;;;16.17;8.27;;;;;-3.40;95374.00;;;;8331378;28;20247;-69
2024/01/16 19:13:47;;;;;;;25.40;9.03;;;;;-3.70;95374.00;;;;8332547;28;20599;-69
2024/01/16 19:17:52;;;;;;;23.27;9.47;;;;;-4.00;95368.00;;;;8331740;28;20280;-68
2024/01/16 19:21:57;;;;;;;23.67;10.63;;;;;-4.40;95359.00;;;;8329922;28;20264;-68
2024/01/16 19:26:03;;;;;;;23.80;8.90;;;;;-4.70;95357.00;;;;8328063;28;20284;-69
2024/01/16 19:30:13;;;;;;;16.03;7.93;;;;;-5.00;95343.00;;;;8331501;28;20217;-69
2024/01/16 19:34:18;;;;;;;23.03;8.33;;;;;-5.30;95340.00;;;;8330811;28;20219;-68
2024/01/16 19:38:22;;;;;;;20.50;8.40;;;;;-5.60;95334.00;;;;8331850;28;20282;-69
2024/01/16 19:42:25;;;;;;;16.47;8.30;;;;;-5.80;95324.00;;;;8331069;28;20200;-68
2024/01/16 19:46:28;;;;;;;20.77;9.27;;;;;-5.90;95318.00;;;;8330722;28;20228;-68
2024/01/16 19:50:33;;;;;;;24.03;9.53;;;;;-6.10;95316.00;;;;8330635;28;20229;-68
2024/01/16 19:54:38;;;;;;;26.13;9.77;;;;;-6.20;95317.00;;;;8331141;28;20235;-68
2024/01/16 19:58:42;;;;;;;22.00;9.93;;;;;-6.20;95324.00;;;;8330735;28;20594;-68
2024/01/16 20:02:45;;;;;;;22.93;9.47;;;;;-6.40;95316.00;;;;8331468;28;20262;-69
2024/01/16 20:06:51;;;;;;;26.23;10.43;;;;;-6.40;95313.00;;;;8330762;28;20194;-69
2024/01/16 20:10:55;;;;;;;22.47;10.20;;;;;-6.50;95312.00;;;;8336031;28;20679;-69
2024/01/16 20:14:58;;;;;;;28.50;10.37;;;;;-6.60;95304.00;;;;8337562;28;20314;-69
2024/01/16 20:19:06;;;;;;;13.70;7.37;;;;;-6.70;95305.00;;;;8336362;28;20190;-69